Time;durP1;ratioP1;P1;durP2;ratioP2;P2;SDS_P1;SDS_P2;PMS_P1;PMS_P2;Temp;Humidity;BMP_temperature;BMP_pressure;BME280_temperature;BME280_humidity;BME280_pressure;Samples;Min_cycle;Max_cycle;Signal;HPM_P1;HPM_P2
2023/08/21 00:01:02;;;;;;;13.73;9.60;;;;;;;21.88;99.82;101456.84;5085998;28;20088;-70
2023/08/21 00:03:30;;;;;;;13.73;9.57;;;;;;;21.85;99.75;101460.69;5082071;28;20484;-68
2023/08/21 00:05:57;;;;;;;11.68;8.90;;;;;;;21.83;99.78;101465.31;5084482;28;20512;-65
2023/08/21 00:08:24;;;;;;;17.20;9.43;;;;;;;21.82;100.00;101466.31;5085475;28;20056;-68
2023/08/21 00:10:52;;;;;;;12.93;8.98;;;;;;;21.79;99.37;101455.88;5082500;28;20072;-68
2023/08/21 00:13:19;;;;;;;12.68;8.88;;;;;;;21.75;100.00;101457.19;5082308;28;20052;-68
2023/08/21 00:15:46;;;;;;;10.73;9.43;;;;;;;21.72;99.92;101450.25;5087541;28;20174;-68
2023/08/21 00:18:14;;;;;;;11.85;9.27;;;;;;;21.68;100.00;101448.84;5084467;28;20089;-66
2023/08/21 00:20:42;;;;;;;9.85;8.85;;;;;;;21.66;100.00;101458.00;5085394;28;20048;-64
2023/08/21 00:23:10;;;;;;;15.27;8.52;;;;;;;21.63;100.00;101453.78;5085502;28;20044;-68
2023/08/21 00:25:37;;;;;;;11.20;9.63;;;;;;;21.62;100.00;101456.63;5081671;28;20086;-67
2023/08/21 00:28:05;;;;;;;12.45;9.45;;;;;;;21.58;100.00;101456.06;5082865;28;20138;-67
2023/08/21 00:30:32;;;;;;;10.70;9.25;;;;;;;21.56;100.00;101455.31;5067183;28;20048;-67
2023/08/21 00:32:59;;;;;;;10.35;9.13;;;;;;;21.53;100.00;101458.31;5080601;28;20097;-67
2023/08/21 00:35:27;;;;;;;12.73;9.50;;;;;;;21.51;100.00;101449.56;5086694;28;20060;-68
2023/08/21 00:37:54;;;;;;;17.08;11.27;;;;;;;21.49;100.00;101454.22;5082141;28;20054;-66
2023/08/21 00:40:21;;;;;;;12.27;9.60;;;;;;;21.46;100.00;101452.66;5082739;28;20048;-67
2023/08/21 00:42:49;;;;;;;13.90;10.32;;;;;;;21.46;100.00;101459.84;5083116;28;20052;-68
2023/08/21 00:45:16;;;;;;;13.27;10.55;;;;;;;21.42;100.00;101453.91;5086303;28;20141;-68
2023/08/21 00:47:43;;;;;;;12.23;9.07;;;;;;;21.40;100.00;101460.44;5078041;28;20051;-65
2023/08/21 00:50:11;;;;;;;14.80;9.95;;;;;;;21.37;100.00;101463.38;5054765;28;20066;-67
2023/08/21 00:52:40;;;;;;;11.38;9.88;;;;;;;21.34;100.00;101458.28;5088591;28;20154;-65
2023/08/21 00:55:08;;;;;;;12.25;9.32;;;;;;;21.35;100.00;101454.66;5046531;28;20058;-69
2023/08/21 00:57:36;;;;;;;14.15;10.63;;;;;;;21.34;100.00;101461.81;5065315;28;20413;-69
2023/08/21 01:00:05;;;;;;;13.73;10.35;;;;;;;21.34;100.00;101455.59;5067787;28;20057;-69
2023/08/21 01:02:32;;;;;;;13.30;10.02;;;;;;;21.31;100.00;101455.88;5080937;28;20051;-68
2023/08/21 01:04:59;;;;;;;11.73;10.48;;;;;;;21.28;100.00;101459.66;5079167;28;20048;-67
2023/08/21 01:07:27;;;;;;;15.15;10.52;;;;;;;21.27;100.00;101459.81;5067143;28;20078;-69
2023/08/21 01:10:16;;;;;;;13.23;9.30;;;;;;;21.24;100.00;101453.75;5080620;28;20429;-68
2023/08/21 01:13:06;;;;;;;11.00;9.43;;;;;;;21.24;100.00;101456.41;5063719;28;20067;-68
2023/08/21 01:15:33;;;;;;;12.98;10.20;;;;;;;21.24;100.00;101456.41;5079193;28;20044;-66
2023/08/21 01:18:01;;;;;;;12.57;10.55;;;;;;;21.23;100.00;101452.06;5067225;28;20445;-69
2023/08/21 01:20:28;;;;;;;12.27;10.52;;;;;;;21.21;100.00;101456.72;5057914;28;20070;-68
2023/08/21 01:22:55;;;;;;;12.50;9.70;;;;;;;21.21;100.00;101453.19;5059559;28;21090;-66
2023/08/21 01:25:23;;;;;;;14.23;10.63;;;;;;;21.21;100.00;101453.19;5073806;28;20052;-65
2023/08/21 01:27:50;;;;;;;16.67;12.13;;;;;;;21.26;100.00;101458.13;5085052;28;20131;-69
2023/08/21 01:30:17;;;;;;;12.23;10.00;;;;;;;21.26;100.00;101450.94;5075680;28;20048;-68
2023/08/21 01:33:05;;;;;;;12.25;10.45;;;;;;;21.29;100.00;101456.00;5065244;28;20524;-67
2023/08/21 01:35:34;;;;;;;12.48;10.07;;;;;;;21.32;100.00;101452.25;5064562;28;20054;-68
2023/08/21 01:38:03;;;;;;;10.82;9.00;;;;;;;21.33;100.00;101449.41;5064539;28;20072;-68
2023/08/21 01:40:30;;;;;;;12.30;9.82;;;;;;;21.36;100.00;101449.13;5079109;28;20056;-67
2023/08/21 01:42:57;;;;;;;11.48;10.27;;;;;;;21.40;100.00;101449.72;5081196;28;20066;-66
2023/08/21 01:45:25;;;;;;;13.23;10.18;;;;;;;21.43;100.00;101441.38;5077933;28;20057;-68
2023/08/21 01:47:52;;;;;;;10.98;9.75;;;;;;;21.46;100.00;101433.06;5071534;28;20633;-66
2023/08/21 01:50:19;;;;;;;13.80;9.90;;;;;;;21.49;100.00;101430.09;5079155;28;20062;-65
2023/08/21 01:52:47;;;;;;;11.35;10.13;;;;;;;21.49;100.00;101425.59;5079270;28;20066;-68
2023/08/21 01:55:14;;;;;;;13.20;9.88;;;;;;;21.47;100.00;101424.88;5088676;28;20090;-67
2023/08/21 01:57:42;;;;;;;18.25;10.38;;;;;;;21.46;100.00;101433.06;5083450;28;20048;-67
2023/08/21 02:00:10;;;;;;;11.57;10.32;;;;;;;21.47;100.00;101434.75;5083559;28;20083;-66
2023/08/21 02:02:37;;;;;;;13.60;10.02;;;;;;;21.47;100.00;101437.44;5082751;28;20058;-67
2023/08/21 02:05:05;;;;;;;11.55;9.60;;;;;;;21.47;100.00;101437.44;5085878;28;20137;-69
2023/08/21 02:07:33;;;;;;;11.05;9.77;;;;;;;21.48;100.00;101429.28;5079615;28;20048;-67
2023/08/21 02:10:00;;;;;;;14.48;9.95;;;;;;;21.45;100.00;101432.22;5071813;28;20464;-68
2023/08/21 02:12:28;;;;;;;14.32;9.23;;;;;;;21.43;100.00;101431.53;5088099;28;20131;-69
2023/08/21 02:14:55;;;;;;;12.23;9.65;;;;;;;21.42;100.00;101426.28;5085328;28;20066;-68
2023/08/21 02:17:22;;;;;;;12.63;10.55;;;;;;;21.40;100.00;101428.28;5086229;28;20136;-66
2023/08/21 02:19:50;;;;;;;13.65;9.77;;;;;;;21.37;100.00;101424.03;5088031;28;20055;-66
2023/08/21 02:22:17;;;;;;;12.52;10.32;;;;;;;21.33;100.00;101422.63;5080431;28;20040;-68
2023/08/21 02:24:44;;;;;;;13.82;10.20;;;;;;;21.31;100.00;101434.44;5079478;28;21025;-66
2023/08/21 02:27:12;;;;;;;12.60;9.88;;;;;;;21.30;100.00;101428.25;5075813;28;20048;-67
2023/08/21 02:29:39;;;;;;;12.30;10.23;;;;;;;21.31;100.00;101432.66;5083489;28;20149;-66
2023/08/21 02:32:06;;;;;;;12.73;10.35;;;;;;;21.31;100.00;101429.97;5078745;28;20396;-65
2023/08/21 02:34:34;;;;;;;13.10;9.60;;;;;;;21.32;100.00;101438.84;5081675;28;20048;-68
2023/08/21 02:37:01;;;;;;;14.02;9.30;;;;;;;21.32;100.00;101436.16;5080212;28;20119;-66
2023/08/21 02:39:28;;;;;;;13.15;9.30;;;;;;;21.32;100.00;101433.50;5075792;28;20060;-68
2023/08/21 02:41:55;;;;;;;11.60;9.73;;;;;;;21.30;100.00;101428.25;5077955;28;20050;-68
2023/08/21 02:44:23;;;;;;;14.48;9.82;;;;;;;21.30;100.00;101430.06;5083445;28;20098;-67
2023/08/21 02:46:50;;;;;;;12.50;9.65;;;;;;;21.29;100.00;101434.56;5080919;28;20061;-64
2023/08/21 02:49:17;;;;;;;12.35;8.95;;;;;;;21.29;100.00;101431.03;5085100;28;20044;-66
2023/08/21 02:51:44;;;;;;;13.15;8.82;;;;;;;21.29;100.00;101429.22;5079486;28;20048;-67
2023/08/21 02:54:11;;;;;;;11.40;9.70;;;;;;;21.31;100.00;101431.78;5082121;28;20048;-67
2023/08/21 02:56:39;;;;;;;14.23;9.60;;;;;;;21.29;100.00;101431.88;5084305;28;20071;-67
2023/08/21 02:59:06;;;;;;;13.05;8.57;;;;;;;21.30;100.00;101436.28;5063108;28;20052;-65
2023/08/21 03:01:35;;;;;;;12.65;8.93;;;;;;;21.32;100.00;101436.16;5078854;28;20110;-67
2023/08/21 03:04:02;;;;;;;10.98;8.57;;;;;;;21.30;100.00;101438.97;5080803;28;20052;-64
2023/08/21 03:06:29;;;;;;;11.88;9.15;;;;;;;21.30;100.00;101428.25;5078594;28;20484;-65
2023/08/21 03:08:56;;;;;;;14.18;9.43;;;;;;;21.31;100.00;101426.41;5083698;28;20051;-65
2023/08/21 03:11:23;;;;;;;13.15;9.38;;;;;;;21.30;100.00;101427.38;5084112;28;20446;-67
2023/08/21 03:13:51;;;;;;;12.52;9.18;;;;;;;21.30;100.00;101417.53;5082017;28;21015;-66
2023/08/21 03:16:18;;;;;;;10.05;8.45;;;;;;;21.31;100.00;101426.41;5065045;28;20196;-69
2023/08/21 03:18:59;;;;;;;13.52;8.85;;;;;;;21.32;100.00;101430.81;5078075;28;20048;-66
2023/08/21 03:21:27;;;;;;;10.35;8.90;;;;;;;21.33;100.00;101427.13;5081294;28;20608;-66
2023/08/21 03:23:56;;;;;;;11.90;8.68;;;;;;;21.34;100.00;101423.47;5068189;28;20146;-67
2023/08/21 03:26:24;;;;;;;13.68;8.90;;;;;;;21.35;100.00;101415.31;5085589;28;20063;-64
2023/08/21 03:28:51;;;;;;;12.90;8.98;;;;;;;21.35;100.00;101411.78;5084532;28;20055;-66
2023/08/21 03:31:18;;;;;;;12.57;7.80;;;;;;;21.35;100.00;101423.34;5085530;28;20079;-66
2023/08/21 03:33:46;;;;;;;9.02;8.13;;;;;;;21.36;100.00;101418.84;5065482;28;20046;-65
2023/08/21 03:36:13;;;;;;;10.68;7.85;;;;;;;21.33;100.00;101411.91;5085855;28;21175;-67
2023/08/21 03:38:41;;;;;;;10.15;8.07;;;;;;;21.32;100.00;101414.75;5082618;28;20412;-69
2023/08/21 03:41:08;;;;;;;8.88;7.97;;;;;;;21.31;100.00;101424.63;5064964;28;20060;-67
2023/08/21 03:43:35;;;;;;;11.98;7.75;;;;;;;21.29;100.00;101423.84;5080324;28;20056;-66
2023/08/21 03:46:03;;;;;;;9.45;8.45;;;;;;;21.27;100.00;101422.31;5081738;28;20653;-67
2023/08/21 03:48:30;;;;;;;10.73;8.38;;;;;;;21.23;100.00;101421.75;5062639;28;20055;-67
2023/08/21 03:50:58;;;;;;;11.82;8.60;;;;;;;21.22;100.00;101420.91;5084418;28;20161;-67
2023/08/21 03:53:25;;;;;;;11.15;8.25;;;;;;;21.20;100.00;101420.19;5085665;28;20570;-64
2023/08/21 03:55:54;;;;;;;11.18;8.60;;;;;;;21.19;100.00;101423.84;5068220;28;20075;-67
2023/08/21 03:58:21;;;;;;;12.45;8.20;;;;;;;21.19;100.00;101431.03;5080937;28;20676;-66
2023/08/21 04:00:48;;;;;;;9.25;7.68;;;;;;;21.18;100.00;101435.56;5081600;28;20060;-68
2023/08/21 04:03:15;;;;;;;16.30;8.35;;;;;;;21.18;100.00;101432.88;5088024;28;20044;-67
2023/08/21 04:05:43;;;;;;;10.07;8.18;;;;;;;21.20;100.00;101435.41;5088032;28;20052;-67
2023/08/21 04:08:10;;;;;;;10.23;8.60;;;;;;;21.21;100.00;101437.13;5083109;28;20134;-68
2023/08/21 04:10:38;;;;;;;20.38;9.40;;;;;;;21.22;100.00;101442.34;5078569;28;20361;-67
2023/08/21 04:13:06;;;;;;;11.70;8.45;;;;;;;21.23;100.00;101444.00;5064846;28;20539;-64
2023/08/21 04:15:35;;;;;;;13.60;8.50;;;;;;;21.26;100.00;101447.41;5067802;28;20054;-67
2023/08/21 04:18:02;;;;;;;15.77;8.75;;;;;;;21.27;100.00;101441.06;5082156;28;20048;-68
2023/08/21 04:20:30;;;;;;;13.07;7.93;;;;;;;21.29;100.00;101449.78;5084163;28;20632;-67
2023/08/21 04:22:57;;;;;;;9.50;7.85;;;;;;;21.30;100.00;101446.13;5061179;28;20468;-65
2023/08/21 04:25:25;;;;;;;12.32;8.80;;;;;;;21.33;100.00;101445.88;5061565;28;20054;-68
2023/08/21 04:27:52;;;;;;;8.85;7.95;;;;;;;21.33;100.00;101448.56;5073157;28;20048;-66
2023/08/21 04:30:19;;;;;;;10.35;7.80;;;;;;;21.33;100.00;101443.22;5081780;28;20702;-67
2023/08/21 04:32:47;;;;;;;11.25;8.52;;;;;;;21.35;100.00;101451.97;5084626;28;20044;-68
2023/08/21 04:35:15;;;;;;;8.77;7.47;;;;;;;21.37;100.00;101450.81;5068312;28;20044;-68
2023/08/21 04:37:47;;;;;;;10.63;8.05;;;;;;;21.38;100.00;101452.50;5083907;28;20060;-67
2023/08/21 04:40:15;;;;;;;16.73;8.10;;;;;;;21.43;100.00;101460.13;5079973;28;20907;-68
2023/08/21 04:42:42;;;;;;;11.50;8.13;;;;;;;21.46;100.00;101460.69;5090101;28;20047;-69
2023/08/21 04:45:09;;;;;;;12.73;7.72;;;;;;;21.50;100.00;101463.94;5081477;28;20052;-66
2023/08/21 04:47:37;;;;;;;10.70;7.57;;;;;;;21.53;100.00;101457.47;5081847;28;20056;-66
2023/08/21 04:50:04;;;;;;;10.85;8.07;;;;;;;21.54;99.52;101464.50;5086323;28;20055;-67
2023/08/21 04:52:31;;;;;;;11.52;7.80;;;;;;;21.56;98.93;101470.56;5084079;28;20496;-66
2023/08/21 04:54:59;;;;;;;11.27;8.02;;;;;;;21.55;98.67;101468.88;5085063;28;20384;-65
2023/08/21 04:57:27;;;;;;;12.93;8.02;;;;;;;21.61;98.53;101468.31;5083483;28;20052;-67
2023/08/21 04:59:54;;;;;;;10.38;7.50;;;;;;;21.65;98.68;101467.88;5086555;28;20512;-67
2023/08/21 05:02:22;;;;;;;8.95;7.63;;;;;;;21.69;97.82;101471.13;5080733;28;20063;-67
2023/08/21 05:04:49;;;;;;;15.93;8.25;;;;;;;21.69;98.09;101473.81;5084893;28;20056;-67
2023/08/21 05:07:16;;;;;;;12.48;8.25;;;;;;;21.73;98.12;101468.00;5085883;28;20430;-68
2023/08/21 05:09:43;;;;;;;10.93;7.75;;;;;;;21.79;97.79;101468.44;5084365;28;20090;-66
2023/08/21 05:12:11;;;;;;;10.48;7.55;;;;;;;21.83;98.22;101476.03;5085144;28;20095;-66
2023/08/21 05:14:38;;;;;;;14.50;8.68;;;;;;;21.82;97.89;101482.41;5078039;28;20072;-69
2023/08/21 05:17:05;;;;;;;10.70;8.65;;;;;;;21.71;98.87;101474.53;5095094;28;20055;-68
2023/08/21 05:19:32;;;;;;;10.30;8.52;;;;;;;21.70;99.14;101473.69;5097431;28;20052;-64
2023/08/21 05:21:59;;;;;;;13.90;8.88;;;;;;;21.76;98.92;101476.78;5089959;28;20324;-67
2023/08/21 05:24:27;;;;;;;14.60;8.52;;;;;;;21.78;99.23;101481.00;5080607;28;20051;-66
2023/08/21 05:26:54;;;;;;;10.93;8.77;;;;;;;21.69;98.95;101474.66;5079567;28;20125;-67
2023/08/21 05:29:22;;;;;;;14.38;9.80;;;;;;;21.68;99.27;101475.63;5084170;28;20123;-67
2023/08/21 05:31:50;;;;;;;10.07;9.02;;;;;;;21.83;98.74;101481.41;5086178;28;20168;-65
2023/08/21 05:34:17;;;;;;;13.25;8.38;;;;;;;21.97;98.01;101475.63;5083688;28;20072;-66
2023/08/21 05:36:44;;;;;;;13.60;8.95;;;;;;;22.09;97.61;101478.13;5080703;28;20143;-67
2023/08/21 05:39:11;;;;;;;10.10;7.75;;;;;;;22.21;96.80;101485.06;5081536;28;20139;-66
2023/08/21 05:41:38;;;;;;;11.85;9.15;;;;;;;22.30;96.18;101480.66;5084665;28;20082;-65
2023/08/21 05:44:06;;;;;;;13.55;9.25;;;;;;;22.39;95.89;101487.84;5078336;28;20060;-63
2023/08/21 05:46:33;;;;;;;12.73;8.63;;;;;;;22.39;94.86;101488.69;5082967;28;20052;-65
2023/08/21 05:49:01;;;;;;;11.90;9.85;;;;;;;22.44;93.90;101488.22;5051398;28;20828;-65
2023/08/21 05:51:28;;;;;;;12.63;8.73;;;;;;;22.51;93.81;101489.31;5083987;28;20129;-67
2023/08/21 05:53:55;;;;;;;13.23;8.80;;;;;;;22.61;92.74;101487.47;5085949;28;20059;-65
2023/08/21 05:56:23;;;;;;;12.93;8.80;;;;;;;22.64;93.02;101484.47;5083448;28;20044;-66
2023/08/21 05:58:50;;;;;;;17.88;9.40;;;;;;;22.73;92.57;101490.78;5083144;28;20048;-65
2023/08/21 06:01:18;;;;;;;19.92;10.85;;;;;;;22.84;92.78;101484.38;5079563;28;20044;-66
2023/08/21 06:03:45;;;;;;;16.00;9.75;;;;;;;22.88;92.64;101483.94;5063350;28;20040;-65
2023/08/21 06:06:12;;;;;;;15.48;10.15;;;;;;;22.91;92.59;101490.88;5082764;28;20061;-64
2023/08/21 06:08:40;;;;;;;11.82;7.95;;;;;;;23.02;92.31;101488.00;5086520;28;20052;-66
2023/08/21 06:11:07;;;;;;;14.23;10.02;;;;;;;23.16;91.65;101500.91;5079787;28;20064;-67
2023/08/21 06:13:34;;;;;;;13.38;8.93;;;;;;;23.20;90.26;101486.19;5033621;28;20136;-66
2023/08/21 06:16:02;;;;;;;15.88;9.60;;;;;;;23.22;90.78;101486.84;5082059;28;20056;-65
2023/08/21 06:18:29;;;;;;;14.48;9.63;;;;;;;23.27;90.76;101496.31;5078132;28;20102;-66
2023/08/21 06:20:57;;;;;;;13.65;8.57;;;;;;;23.33;89.17;101490.34;5078176;28;20515;-65
2023/08/21 06:23:24;;;;;;;12.20;8.20;;;;;;;23.36;87.95;101487.34;5085717;28;20051;-66
2023/08/21 06:25:51;;;;;;;11.68;8.75;;;;;;;23.37;86.97;101497.06;5089605;28;20097;-68
2023/08/21 06:28:19;;;;;;;11.85;8.43;;;;;;;23.39;87.27;101500.47;5078433;28;20048;-67
2023/08/21 06:30:46;;;;;;;12.95;8.20;;;;;;;23.34;86.22;101502.78;5080385;28;20048;-67
2023/08/21 06:33:14;;;;;;;10.75;7.38;;;;;;;23.32;86.62;101508.28;5085167;28;20071;-68
2023/08/21 06:35:41;;;;;;;13.25;7.72;;;;;;;23.27;85.31;101509.75;5076447;28;20060;-65
2023/08/21 06:38:09;;;;;;;11.63;7.82;;;;;;;23.28;85.36;101509.59;5080805;28;20139;-65
2023/08/21 06:40:36;;;;;;;10.98;7.30;;;;;;;23.22;84.36;101520.94;5082239;28;20076;-67
2023/08/21 06:43:05;;;;;;;10.90;7.40;;;;;;;23.18;84.00;101515.03;5068553;28;20411;-67
2023/08/21 06:45:33;;;;;;;10.85;8.43;;;;;;;23.32;84.43;101519.03;5082911;28;20075;-67
2023/08/21 06:48:01;;;;;;;8.27;7.47;;;;;;;23.48;83.84;101515.69;5078562;28;20455;-67
2023/08/21 06:50:28;;;;;;;21.65;7.75;;;;;;;23.63;83.19;101510.59;5084304;28;20051;-68
2023/08/21 06:52:55;;;;;;;7.53;6.72;;;;;;;23.79;82.82;101518.03;5094171;28;20076;-68
2023/08/21 06:55:22;;;;;;;12.10;7.90;;;;;;;24.03;81.90;101520.06;5087857;28;20056;-67
2023/08/21 06:57:49;;;;;;;11.52;7.78;;;;;;;23.99;80.15;101508.75;5085493;28;20678;-67
2023/08/21 07:00:17;;;;;;;10.00;7.10;;;;;;;23.94;81.07;101517.28;5082291;28;20065;-67
2023/08/21 07:02:44;;;;;;;12.65;7.22;;;;;;;24.24;80.16;101515.16;5087846;28;20114;-67
2023/08/21 07:05:11;;;;;;;10.95;8.50;;;;;;;24.05;80.65;101516.22;5091402;28;20090;-68
2023/08/21 07:07:39;;;;;;;12.48;8.50;;;;;;;24.01;81.04;101509.47;5087499;28;20135;-66
2023/08/21 07:10:08;;;;;;;13.90;7.97;;;;;;;24.12;80.64;101513.72;5090152;28;20134;-66
2023/08/21 07:12:35;;;;;;;16.33;8.45;;;;;;;24.34;79.02;101512.38;5094165;22;20059;-62
2023/08/21 07:15:04;;;;;;;10.45;7.07;;;;;;;24.46;77.18;101509.28;5086128;28;20060;-58
2023/08/21 07:17:31;;;;;;;10.80;8.32;;;;;;;24.67;77.26;101513.41;5092043;28;20082;-62
2023/08/21 07:19:58;;;;;;;16.45;6.97;;;;;;;24.91;75.69;101510.00;5081718;28;20056;-62
2023/08/21 07:22:25;;;;;;;14.75;6.57;;;;;;;25.07;74.02;101514.59;5079790;28;20059;-62
2023/08/21 07:24:53;;;;;;;10.77;6.60;;;;;;;25.13;71.79;101516.69;5082788;28;20202;-65
2023/08/21 07:27:20;;;;;;;10.93;6.47;;;;;;;25.17;72.10;101520.72;5087042;28;20226;-60
2023/08/21 07:29:47;;;;;;;13.98;6.35;;;;;;;25.16;71.57;101519.03;5083709;28;20056;-60
2023/08/21 07:32:15;;;;;;;7.72;5.13;;;;;;;25.13;71.22;101524.78;5085263;28;20502;-62
2023/08/21 07:34:42;;;;;;;8.77;5.50;;;;;;;25.24;70.36;101528.00;5084642;28;20059;-63
2023/08/21 07:37:09;;;;;;;10.40;5.32;;;;;;;25.36;69.30;101530.38;5082280;28;20052;-58
2023/08/21 07:39:36;;;;;;;10.70;5.20;;;;;;;25.43;69.34;101520.63;5079345;28;20048;-60
2023/08/21 07:42:04;;;;;;;7.30;4.53;;;;;;;25.53;68.88;101515.91;5083995;28;20052;-62
2023/08/21 07:44:31;;;;;;;9.98;5.18;;;;;;;25.66;67.96;101527.03;5086705;28;20139;-62
2023/08/21 07:46:58;;;;;;;10.07;4.57;;;;;;;25.75;65.05;101539.53;5082414;28;20508;-59
2023/08/21 07:49:25;;;;;;;7.88;4.70;;;;;;;25.65;64.10;101540.69;5067295;28;20062;-62
2023/08/21 07:51:53;;;;;;;9.65;5.28;;;;;;;25.52;64.83;101536.63;5079376;28;20399;-64
2023/08/21 07:54:20;;;;;;;9.07;4.72;;;;;;;25.45;64.66;101540.19;5077742;28;20043;-61
2023/08/21 07:56:47;;;;;;;10.27;4.32;;;;;;;25.60;65.03;101540.38;5082771;28;20520;-61
2023/08/21 07:59:14;;;;;;;10.63;4.40;;;;;;;25.81;64.86;101542.63;5084835;28;20057;-62
2023/08/21 08:01:41;;;;;;;9.80;5.63;;;;;;;25.96;62.56;101549.84;5085757;28;20052;-62
2023/08/21 08:04:10;;;;;;;11.00;4.55;;;;;;;26.09;62.02;101541.25;5076149;28;20051;-62
2023/08/21 08:06:38;;;;;;;10.90;4.60;;;;;;;26.23;61.99;101540.56;5080805;28;20060;-61
2023/08/21 08:09:05;;;;;;;6.55;4.07;;;;;;;26.46;60.35;101542.59;5082214;28;20052;-63
2023/08/21 08:11:33;;;;;;;6.68;3.47;;;;;;;26.51;59.25;101546.44;5083120;28;20055;-62
2023/08/21 08:14:00;;;;;;;6.55;3.50;;;;;;;26.31;58.66;101547.81;5084208;28;20454;-61
2023/08/21 08:16:27;;;;;;;6.65;3.30;;;;;;;26.34;57.03;101546.63;5082961;28;20523;-62
2023/08/21 08:18:55;;;;;;;5.90;3.33;;;;;;;26.23;56.04;101553.22;5078778;28;20392;-60
2023/08/21 08:21:22;;;;;;;7.90;3.95;;;;;;;26.12;56.57;101548.19;5077552;28;20048;-62
2023/08/21 08:23:49;;;;;;;7.78;3.13;;;;;;;26.15;56.69;101554.06;5078933;28;20044;-63
2023/08/21 08:26:16;;;;;;;5.68;3.38;;;;;;;26.16;56.07;101555.78;5076727;28;20077;-62
2023/08/21 08:28:44;;;;;;;6.28;3.35;;;;;;;26.04;55.17;101546.31;5087898;28;20062;-60
2023/08/21 08:31:18;;;;;;;5.75;3.10;;;;;;;25.87;56.05;101548.16;5078837;28;20044;-62
2023/08/21 08:33:46;;;;;;;8.90;3.58;;;;;;;25.82;56.87;101547.84;5066133;28;20419;-61
2023/08/21 08:36:13;;;;;;;10.57;3.92;;;;;;;25.59;57.64;101550.31;5065446;28;20155;-60
2023/08/21 08:38:40;;;;;;;6.57;3.55;;;;;;;25.50;58.53;101545.91;5084507;28;20143;-62
2023/08/21 08:41:12;;;;;;;7.45;3.75;;;;;;;25.55;59.13;101551.66;5080439;28;20060;-60
2023/08/21 08:43:40;;;;;;;7.40;3.33;;;;;;;25.78;58.60;101551.88;5067052;28;20056;-60
2023/08/21 08:46:10;;;;;;;8.68;3.53;;;;;;;26.05;57.54;101552.56;5083853;28;20055;-61
2023/08/21 08:48:38;;;;;;;7.57;3.22;;;;;;;26.35;55.22;101553.72;5068099;28;20177;-62
2023/08/21 08:51:06;;;;;;;5.18;2.25;;;;;;;26.51;48.79;101559.09;5068330;28;20139;-60
2023/08/21 08:53:34;;;;;;;6.63;2.28;;;;;;;26.66;47.63;101556.56;5063634;28;20070;-62
2023/08/21 08:56:01;;;;;;;4.63;2.05;;;;;;;26.75;47.82;101550.97;5065056;28;20047;-62
2023/08/21 08:58:29;;;;;;;6.55;2.28;;;;;;;26.97;49.37;101562.00;5088851;28;20235;-62
2023/08/21 09:00:56;;;;;;;4.95;1.85;;;;;;;27.25;47.47;101562.44;5082394;28;20063;-62
2023/08/21 09:03:23;;;;;;;2.63;1.40;;;;;;;27.50;45.08;101558.53;5085719;28;20159;-62
2023/08/21 09:05:51;;;;;;;7.35;2.10;;;;;;;27.66;44.47;101560.31;5088727;28;20044;-62
2023/08/21 09:08:18;;;;;;;4.75;1.33;;;;;;;27.58;43.54;101552.25;5083025;28;20329;-59
2023/08/21 09:10:45;;;;;;;4.15;1.58;;;;;;;27.87;40.85;101559.66;5063123;28;20056;-62
2023/08/21 09:13:15;;;;;;;5.90;1.40;;;;;;;28.22;41.14;101554.63;5080053;28;20427;-62
2023/08/21 09:15:46;;;;;;;1.92;0.90;;;;;;;28.22;34.61;101549.22;5081904;28;20052;-63
2023/08/21 09:18:15;;;;;;;4.75;1.55;;;;;;;27.74;35.39;101549.47;5086384;28;20143;-58
2023/08/21 09:20:42;;;;;;;3.88;1.33;;;;;;;27.74;36.07;101549.47;5084637;28;20062;-62
2023/08/21 09:23:14;;;;;;;3.72;1.05;;;;;;;27.40;37.32;101543.59;5084551;28;20147;-61
2023/08/21 09:25:44;;;;;;;3.10;1.45;;;;;;;27.55;38.03;101538.25;5082155;28;20079;-60
2023/08/21 09:28:12;;;;;;;2.78;1.10;;;;;;;27.85;37.00;101545.50;5082152;28;20101;-60
2023/08/21 09:30:51;;;;;;;3.40;1.25;;;;;;;28.05;37.38;101548.53;5083281;28;20484;-60
2023/08/21 09:33:21;;;;;;;6.70;1.42;;;;;;;27.89;38.17;101551.38;5085341;28;20048;-60
2023/08/21 09:35:51;;;;;;;5.47;1.33;;;;;;;27.79;39.61;101546.22;5081289;28;20420;-60
2023/08/21 09:38:21;;;;;;;4.30;1.73;;;;;;;27.86;39.72;101543.63;5089069;28;20057;-60
2023/08/21 09:40:52;;;;;;;4.80;1.50;;;;;;;27.83;39.88;101546.69;5078703;28;20147;-63
2023/08/21 09:43:21;;;;;;;4.78;1.15;;;;;;;28.11;38.92;101552.38;5081901;28;20075;-60
2023/08/21 09:45:55;;;;;;;3.42;1.35;;;;;;;28.15;38.46;101543.72;5082471;28;20391;-63
2023/08/21 09:48:23;;;;;;;4.07;1.20;;;;;;;27.98;39.23;101543.00;5067285;28;20523;-63
2023/08/21 09:50:51;;;;;;;2.72;1.33;;;;;;;28.14;38.87;101546.59;5083909;28;21927;-63
2023/08/21 09:53:25;;;;;;;5.28;1.70;;;;;;;28.16;39.34;101537.28;5079522;28;20128;-61
2023/08/21 09:55:53;;;;;;;5.38;1.63;;;;;;;28.24;39.47;101539.06;5083166;28;20078;-63
2023/08/21 09:58:21;;;;;;;7.97;1.50;;;;;;;28.43;40.71;101546.69;5077416;28;20128;-60
2023/08/21 10:00:49;;;;;;;5.65;1.30;;;;;;;28.40;39.09;101533.50;5066421;28;20056;-61
2023/08/21 10:03:21;;;;;;;2.92;1.20;;;;;;;28.38;39.47;101538.28;5079978;28;20070;-61
2023/08/21 10:05:49;;;;;;;4.10;1.30;;;;;;;28.14;40.26;101531.19;5078421;28;21200;-63
2023/08/21 10:08:23;;;;;;;6.68;2.10;;;;;;;28.27;40.17;101530.56;5084552;28;20186;-61
2023/08/21 10:10:50;;;;;;;3.97;1.42;;;;;;;28.23;40.02;101532.81;5085969;28;20056;-60
2023/08/21 10:13:18;;;;;;;6.30;1.10;;;;;;;28.21;39.77;101540.25;5065288;28;20059;-62
2023/08/21 10:15:46;;;;;;;3.80;1.08;;;;;;;28.22;39.22;101543.81;5071750;28;20067;-61
2023/08/21 10:18:17;;;;;;;4.35;1.30;;;;;;;28.10;38.55;101545.28;5078390;28;20052;-59
2023/08/21 10:20:45;;;;;;;6.15;1.38;;;;;;;28.12;38.62;101540.53;5072045;28;20056;-61
2023/08/21 10:23:24;;;;;;;3.75;1.30;;;;;;;27.79;39.70;101534.56;5086794;28;20179;-62
2023/08/21 10:25:58;;;;;;;3.17;1.48;;;;;;;28.05;40.17;101543.09;5088736;28;20098;-60
2023/08/21 10:28:51;;;;;;;5.07;1.30;;;;;;;28.40;38.13;101541.63;5087051;28;20071;-61
2023/08/21 10:31:38;;;;;;;4.13;1.27;;;;;;;28.49;38.61;101545.94;5087100;28;20048;-62
2023/08/21 10:34:09;;;;;;;5.50;1.40;;;;;;;28.51;38.95;101532.22;5085211;28;20492;-59
2023/08/21 10:36:42;;;;;;;6.40;1.77;;;;;;;28.38;38.98;101545.56;5084907;28;20167;-64
2023/08/21 10:39:12;;;;;;;8.18;1.60;;;;;;;28.11;39.58;101542.41;5083820;28;20519;-62
2023/08/21 10:41:39;;;;;;;4.88;1.40;;;;;;;28.27;39.95;101542.22;5088416;28;20134;-58
2023/08/21 10:44:08;;;;;;;3.17;1.73;;;;;;;28.60;39.83;101535.69;5093690;28;20459;-59
2023/08/21 10:47:16;;;;;;;7.25;2.10;;;;;;;28.51;39.71;101540.34;5087628;28;20504;-63
2023/08/21 10:49:48;;;;;;;4.60;1.40;;;;;;;28.42;38.99;101549.59;5071375;28;20447;-61
2023/08/21 10:52:28;;;;;;;2.65;1.33;;;;;;;28.25;38.12;101546.16;5086601;28;20044;-61
2023/08/21 10:54:57;;;;;;;3.28;1.08;;;;;;;28.51;38.61;101543.88;5083911;28;20098;-64
2023/08/21 10:57:26;;;;;;;3.25;1.30;;;;;;;28.96;37.72;101538.50;5088234;28;20048;-59
2023/08/21 10:59:54;;;;;;;4.78;1.52;;;;;;;28.97;36.81;101551.84;5085134;28;20055;-61
2023/08/21 11:02:22;;;;;;;2.35;1.38;;;;;;;29.12;38.61;101538.25;5085307;28;20133;-61
2023/08/21 11:04:50;;;;;;;4.05;1.50;;;;;;;29.36;39.07;101541.66;5081240;28;20069;-62
2023/08/21 11:07:18;;;;;;;2.60;1.27;;;;;;;29.24;38.43;101549.47;5087819;28;20499;-62
2023/08/21 11:09:45;;;;;;;4.60;1.63;;;;;;;28.95;36.81;101547.59;5066289;28;20447;-62
2023/08/21 11:12:15;;;;;;;3.80;1.30;;;;;;;28.92;37.47;101543.41;5084159;28;20078;-61
2023/08/21 11:14:43;;;;;;;3.05;1.42;;;;;;;29.09;37.59;101549.50;5082800;28;20070;-63
2023/08/21 11:17:11;;;;;;;3.58;1.40;;;;;;;28.83;37.77;101546.41;5082964;28;20485;-63
2023/08/21 11:19:39;;;;;;;6.45;1.95;;;;;;;28.88;37.86;101544.81;5083882;28;20478;-62
2023/08/21 11:22:07;;;;;;;6.28;2.05;;;;;;;29.12;37.71;101545.56;5081989;28;20495;-61